createdAt,value
2022-09-04T00:01:57.543Z,100929.38
2022-09-04T00:04:24.491Z,100931.70
2022-09-04T00:07:22.372Z,100922.84
2022-09-04T00:10:23.724Z,100923.39
2022-09-04T00:13:08.478Z,100923.80
2022-09-04T00:15:39.705Z,100922.27
2022-09-04T00:18:08.535Z,100921.93
2022-09-04T00:21:00.301Z,100923.75
2022-09-04T00:23:39.404Z,100927.11
2022-09-04T00:26:23.558Z,100929.65
2022-09-04T00:28:51.531Z,100933.40
2022-09-04T00:31:30.462Z,100934.69
2022-09-04T00:34:33.253Z,100938.80
2022-09-04T00:37:04.548Z,100942.55
2022-09-04T00:39:46.448Z,100938.70
2022-09-04T00:42:35.163Z,100941.61
2022-09-04T00:45:16.558Z,100944.18
2022-09-04T00:47:58.664Z,100954.54
2022-09-04T00:51:00.129Z,100957.79
2022-09-04T00:53:55.237Z,100959.75
2022-09-04T00:56:53.515Z,100967.22
2022-09-04T00:59:57.635Z,100975.70
2022-09-04T01:03:02.470Z,100981.75
2022-09-04T01:05:40.690Z,100987.79
2022-09-04T01:08:27.979Z,100991.16
2022-09-04T01:11:32.344Z,100989.80
2022-09-04T01:14:13.530Z,100986.30
2022-09-04T01:17:05.162Z,100986.73
2022-09-04T01:19:52.696Z,100980.80
2022-09-04T01:22:36.233Z,100979.11
2022-09-04T01:25:05.850Z,100986.44
2022-09-04T01:27:48.261Z,100987.80
2022-09-04T01:30:16.843Z,100990.92
2022-09-04T01:33:12.054Z,100989.77
2022-09-04T01:36:02.352Z,100991.79
2022-09-04T01:38:43.638Z,100993.95
2022-09-04T01:41:38.371Z,100994.02
2022-09-04T01:44:10.002Z,100989.70
2022-09-04T01:46:58.867Z,100988.89
2022-09-04T01:49:28.992Z,100988.42
2022-09-04T01:52:08.131Z,100987.59
2022-09-04T01:54:54.335Z,100992.30
2022-09-04T01:57:33.471Z,100996.40
2022-09-04T02:00:10.352Z,100985.87
2022-09-04T02:02:56.537Z,100984.83
2022-09-04T02:05:29.859Z,100988.95
2022-09-04T02:08:12.163Z,100993.44
2022-09-04T02:10:54.601Z,101000.02
2022-09-04T02:13:29.711Z,101003.73
2022-09-04T02:16:04.578Z,101000.08
2022-09-04T02:18:41.535Z,100997.23
2022-09-04T02:21:31.940Z,100993.66
2022-09-04T02:24:07.898Z,100994.19
2022-09-04T02:26:43.045Z,100992.05
2022-09-04T02:29:33.285Z,100992.56
2022-09-04T02:32:21.795Z,100991.27
2022-09-04T02:34:57.757Z,100993.09
2022-09-04T02:37:30.848Z,100990.98
2022-09-04T02:40:32.618Z,100993.82
2022-09-04T02:43:21.585Z,100991.04
2022-09-04T02:46:11.367Z,100994.48
2022-09-04T02:48:47.630Z,100992.89
2022-09-04T02:51:36.499Z,100990.42
2022-09-04T02:54:33.446Z,100996.66
2022-09-04T02:57:09.604Z,101002.36
2022-09-04T02:59:55.499Z,101004.84
2022-09-04T03:02:54.698Z,101009.77
2022-09-04T03:05:23.798Z,101009.04
2022-09-04T03:08:12.763Z,101009.88
2022-09-04T03:10:44.316Z,101013.74
2022-09-04T03:13:20.992Z,101012.98
2022-09-04T03:16:04.547Z,101014.52
2022-09-04T03:18:55.837Z,101018.02
2022-09-04T03:21:52.712Z,101019.91
2022-09-04T03:24:19.665Z,101020.05
2022-09-04T03:26:50.952Z,101016.99
2022-09-04T03:29:42.556Z,101020.48
2022-09-04T03:32:17.045Z,101015.27
2022-09-04T03:34:57.853Z,101017.50
2022-09-04T03:37:31.663Z,101016.73
2022-09-04T03:40:25.541Z,101008.02
2022-09-04T03:42:55.490Z,101009.02
2022-09-04T03:45:36.336Z,101018.88
2022-09-04T03:48:42.094Z,101023.85
2022-09-04T03:51:25.939Z,101027.89
2022-09-04T03:54:08.284Z,101032.80
2022-09-04T03:56:41.453Z,101034.50
2022-09-04T03:59:10.063Z,101033.47
2022-09-04T04:02:04.645Z,101034.53
2022-09-04T04:04:35.492Z,101037.66
2022-09-04T04:07:14.937Z,101038.09
2022-09-04T04:10:07.586Z,101039.69
2022-09-04T04:12:42.674Z,101041.76
2022-09-04T04:15:38.674Z,101043.23
2022-09-04T04:18:35.117Z,101046.28
2022-09-04T04:21:21.224Z,101048.50
2022-09-04T04:24:22.299Z,101045.35
2022-09-04T04:27:14.923Z,101045.14
2022-09-04T04:30:04.308Z,101052.52
2022-09-04T04:33:13.240Z,101053.98
2022-09-04T04:35:40.198Z,101059.45
2022-09-04T04:38:46.271Z,101062.17
2022-09-04T04:41:25.346Z,101061.89
2022-09-04T04:44:11.619Z,101061.45
2022-09-04T04:46:51.597Z,101063.13
2022-09-04T04:49:57.630Z,101062.14
2022-09-04T04:52:44.442Z,101064.41
2022-09-04T04:55:16.657Z,101071.89
2022-09-04T04:57:56.769Z,101075.15
2022-09-04T05:00:46.247Z,101076.66
2022-09-04T05:03:25.702Z,101079.70
2022-09-04T05:06:02.649Z,101082.05
2022-09-04T05:08:37.942Z,101083.73
2022-09-04T05:11:23.236Z,101088.92
2022-09-04T05:14:25.442Z,101088.36
2022-09-04T05:17:04.591Z,101092.38
2022-09-04T05:19:34.377Z,101093.08
2022-09-04T05:22:09.252Z,101096.13
2022-09-04T05:24:45.084Z,101098.97
2022-09-04T05:27:22.793Z,101099.63
2022-09-04T05:29:57.321Z,101096.71
2022-09-04T05:32:42.505Z,101097.38
2022-09-04T05:35:18.776Z,101091.70
2022-09-04T05:37:56.172Z,101088.25
2022-09-04T05:40:38.486Z,101088.15
2022-09-04T05:43:17.518Z,101085.00
2022-09-04T05:46:03.495Z,101089.12
2022-09-04T05:48:52.802Z,101090.77
2022-09-04T05:51:53.550Z,101095.35
2022-09-04T05:54:39.351Z,101099.95
2022-09-04T05:57:26.172Z,101100.80
2022-09-04T06:00:25.798Z,101100.22
2022-09-04T06:02:58.811Z,101105.23
2022-09-04T06:05:53.798Z,101106.78
2022-09-04T06:08:58.545Z,101105.75
2022-09-04T06:11:34.204Z,101098.81
2022-09-04T06:14:23.177Z,101097.15
2022-09-04T06:16:53.303Z,101094.96
2022-09-04T06:19:20.262Z,101096.48
2022-09-04T06:21:56.538Z,101102.45
2022-09-04T06:24:46.432Z,101101.23
2022-09-04T06:27:23.522Z,101104.73
2022-09-04T06:30:00.107Z,101111.42
2022-09-04T06:33:05.567Z,101115.95
2022-09-04T06:35:52.281Z,101118.42
2022-09-04T06:38:22.401Z,101119.78
2022-09-04T06:40:55.712Z,101119.49
2022-09-04T06:44:00.353Z,101121.16
2022-09-04T06:46:39.091Z,101125.42
2022-09-04T06:49:47.613Z,101128.75
2022-09-04T06:52:22.754Z,101128.34
2022-09-04T06:55:26.881Z,101127.38
2022-09-04T06:58:05.651Z,101135.13
2022-09-04T07:00:54.424Z,101138.11
2022-09-04T07:03:33.822Z,101140.51
2022-09-04T07:06:30.712Z,101142.08
2022-09-04T07:09:32.038Z,101142.20
2022-09-04T07:12:18.443Z,101141.53
2022-09-04T07:15:23.688Z,101139.02
2022-09-04T07:18:12.865Z,101141.06
2022-09-04T07:21:20.471Z,101141.30
2022-09-04T07:23:59.076Z,101135.34
2022-09-04T07:26:47.264Z,101136.17
2022-09-04T07:29:41.232Z,101130.34
2022-09-04T07:32:11.590Z,101130.05
2022-09-04T07:35:00.586Z,101127.59
2022-09-04T07:37:47.648Z,101132.70
2022-09-04T07:40:42.043Z,101137.64
2022-09-04T07:43:30.604Z,101136.80
2022-09-04T07:46:23.095Z,101134.81
2022-09-04T07:48:55.739Z,101130.29
2022-09-04T07:51:34.637Z,101128.88
2022-09-04T07:54:29.815Z,101126.91
2022-09-04T07:57:22.745Z,101128.52
2022-09-04T08:00:11.129Z,101126.89
2022-09-04T08:03:01.811Z,101127.48
2022-09-04T08:05:32.579Z,101119.41
2022-09-04T08:08:34.006Z,101116.52
2022-09-04T08:11:08.539Z,101123.95
2022-09-04T08:14:00.580Z,101119.67
2022-09-04T08:16:33.882Z,101121.27
2022-09-04T08:19:41.044Z,101121.92
2022-09-04T08:22:12.633Z,101121.27
2022-09-04T08:24:44.908Z,101126.16
2022-09-04T08:27:30.496Z,101126.50
2022-09-04T08:30:12.546Z,101131.31
2022-09-04T08:32:48.471Z,101135.64
2022-09-04T08:35:15.724Z,101134.23
2022-09-04T08:37:52.403Z,101131.39
2022-09-04T08:40:55.319Z,101133.30
2022-09-04T08:43:27.787Z,101139.67
2022-09-04T08:46:19.928Z,101141.52
2022-09-04T08:49:15.335Z,101137.15
2022-09-04T08:52:03.613Z,101136.02
2022-09-04T08:54:42.615Z,101137.21
2022-09-04T08:57:23.904Z,101139.10
2022-09-04T09:00:00.380Z,101136.77
2022-09-04T09:02:46.842Z,101133.34
2022-09-04T09:05:55.874Z,101135.45
2022-09-04T09:08:47.655Z,101135.33
2022-09-04T09:11:45.634Z,101133.97
2022-09-04T09:14:32.249Z,101133.14
2022-09-04T09:17:18.783Z,101132.22
2022-09-04T09:20:25.742Z,101130.30
2022-09-04T09:23:15.998Z,101135.14
2022-09-04T09:26:06.754Z,101137.89
2022-09-04T09:28:58.789Z,101139.70
2022-09-04T09:31:56.938Z,101134.05
2022-09-04T09:35:03.445Z,101136.45
2022-09-04T09:38:04.545Z,101136.98
2022-09-04T09:40:59.201Z,101131.49
2022-09-04T09:43:42.324Z,101124.54
2022-09-04T09:46:28.283Z,101128.75
2022-09-04T09:49:25.681Z,101133.73
2022-09-04T09:52:29.392Z,101131.88
2022-09-04T09:55:12.622Z,101126.60
2022-09-04T09:58:19.508Z,101126.48
2022-09-04T10:01:13.864Z,101125.77
2022-09-04T10:03:59.700Z,101128.27
2022-09-04T10:06:59.662Z,101130.49
2022-09-04T10:09:30.162Z,101129.84
2022-09-04T10:12:03.363Z,101128.20
2022-09-04T10:14:50.588Z,101122.28
2022-09-04T10:17:34.329Z,101127.02
2022-09-04T10:20:29.175Z,101129.13
2022-09-04T10:23:25.919Z,101130.52
2022-09-04T10:26:09.787Z,101122.27
2022-09-04T10:29:11.498Z,101118.64
2022-09-04T10:31:54.927Z,101120.21
2022-09-04T10:34:45.578Z,101111.34
2022-09-04T10:37:43.390Z,101107.43
2022-09-04T10:40:39.601Z,101109.02
2022-09-04T10:43:46.611Z,101109.70
2022-09-04T10:46:42.023Z,101108.70
2022-09-04T10:49:18.288Z,101112.23
2022-09-04T10:52:00.391Z,101110.17
2022-09-04T10:54:32.768Z,101106.06
2022-09-04T10:57:00.192Z,101108.71
2022-09-04T11:00:04.373Z,101103.48
2022-09-04T11:02:41.351Z,101107.39
2022-09-04T11:05:21.178Z,101111.07
2022-09-04T11:08:18.232Z,101115.44
2022-09-04T11:10:48.763Z,101107.45
2022-09-04T11:13:46.065Z,101101.73
2022-09-04T11:16:47.776Z,101103.38
2022-09-04T11:20:00.748Z,101105.42
2022-09-04T11:22:35.163Z,101100.90
2022-09-04T11:25:33.828Z,101098.98
2022-09-04T11:28:40.467Z,101098.41
2022-09-04T11:31:26.826Z,101094.39
2022-09-04T11:33:54.362Z,101094.31
2022-09-04T11:36:36.562Z,101087.91
2022-09-04T11:39:32.928Z,101080.44
2022-09-04T11:42:20.830Z,101086.23
2022-09-04T11:44:47.779Z,101089.64
2022-09-04T11:47:33.975Z,101087.88
2022-09-04T11:50:28.970Z,101085.33
2022-09-04T11:52:56.937Z,101087.36
2022-09-04T11:55:42.521Z,101090.59
2022-09-04T11:58:46.853Z,101090.20
2022-09-04T12:01:47.683Z,101094.77
2022-09-04T12:04:44.116Z,101087.09
2022-09-04T12:07:23.354Z,101084.52
2022-09-04T12:09:52.234Z,101086.22
2022-09-04T12:12:23.038Z,101086.30
2022-09-04T12:15:20.835Z,101084.16
2022-09-04T12:18:01.502Z,101085.94
2022-09-04T12:20:50.562Z,101089.27
2022-09-04T12:23:36.361Z,101091.60
2022-09-04T12:26:31.255Z,101095.34
2022-09-04T12:29:17.955Z,101093.23
2022-09-04T12:31:51.476Z,101094.55
2022-09-04T12:34:33.765Z,101096.23
2022-09-04T12:37:36.028Z,101098.02
2022-09-04T12:40:06.003Z,101099.08
2022-09-04T12:42:48.763Z,101096.84
2022-09-04T12:45:22.116Z,101097.40
2022-09-04T12:47:59.131Z,101101.15
2022-09-04T12:50:38.268Z,101103.54
2022-09-04T12:53:19.636Z,101101.23
2022-09-04T12:56:03.361Z,101099.84
2022-09-04T12:58:34.625Z,101103.83
2022-09-04T13:01:33.888Z,101104.17
2022-09-04T13:04:15.311Z,101106.77
2022-09-04T13:06:52.786Z,101115.09
2022-09-04T13:09:41.558Z,101110.92
2022-09-04T13:12:43.116Z,101113.86
2022-09-04T13:15:22.028Z,101118.98
2022-09-04T13:17:58.602Z,101118.63
2022-09-04T13:20:41.328Z,101117.70
2022-09-04T13:23:37.046Z,101119.10
2022-09-04T13:26:16.675Z,101117.77
2022-09-04T13:28:52.524Z,101115.52
2022-09-04T13:31:20.393Z,101113.58
2022-09-04T13:34:03.233Z,101109.77
2022-09-04T13:36:54.317Z,101115.31
2022-09-04T13:39:24.284Z,101113.89
2022-09-04T13:42:10.970Z,101117.80
2022-09-04T13:44:40.841Z,101127.30
2022-09-04T13:47:32.907Z,101130.38
2022-09-04T13:50:10.196Z,101133.86
2022-09-04T13:52:55.836Z,101131.81
2022-09-04T13:55:28.273Z,101136.11
2022-09-04T13:57:59.010Z,101139.84
2022-09-04T14:00:28.526Z,101136.80
2022-09-04T14:03:01.161Z,101136.59
2022-09-04T14:05:28.861Z,101136.55
2022-09-04T14:08:03.076Z,101138.60
2022-09-04T14:11:17.861Z,101138.63
2022-09-04T14:14:31.392Z,101138.84
2022-09-04T14:17:00.223Z,101136.38
2022-09-04T14:19:33.281Z,101136.41
2022-09-04T14:22:07.365Z,101146.73
2022-09-04T14:24:47.174Z,101149.30
2022-09-04T14:27:50.031Z,101149.66
2022-09-04T14:30:22.370Z,101150.96
2022-09-04T14:33:19.405Z,101149.27
2022-09-04T14:36:05.759Z,101148.23
2022-09-04T14:39:14.634Z,101154.81
2022-09-04T14:42:19.277Z,101152.77
2022-09-04T14:44:49.640Z,101151.20
2022-09-04T14:47:32.605Z,101151.57
2022-09-04T14:50:01.565Z,101155.60
2022-09-04T14:52:33.074Z,101158.16
2022-09-04T14:55:02.607Z,101158.69
2022-09-04T14:57:39.806Z,101160.90
2022-09-04T15:00:20.081Z,101155.78
2022-09-04T15:02:59.488Z,101153.20
2022-09-04T15:05:34.520Z,101147.17
2022-09-04T15:08:03.550Z,101146.23
2022-09-04T15:10:36.312Z,101146.89
2022-09-04T15:13:09.388Z,101145.52
2022-09-04T15:15:39.292Z,101145.44
2022-09-04T15:18:16.089Z,101148.87
2022-09-04T15:21:18.350Z,101150.96
2022-09-04T15:24:08.634Z,101151.15
2022-09-04T15:26:42.329Z,101152.60
2022-09-04T15:29:11.735Z,101154.39
2022-09-04T15:31:42.158Z,101152.77
2022-09-04T15:34:11.050Z,101153.90
2022-09-04T15:36:39.529Z,101147.56
2022-09-04T15:39:11.245Z,101143.77
2022-09-04T15:41:48.320Z,101144.52
2022-09-04T15:44:15.926Z,101151.66
2022-09-04T15:46:51.692Z,101154.05
2022-09-04T15:50:12.829Z,101154.79
2022-09-04T15:52:52.794Z,101155.70
2022-09-04T15:55:32.279Z,101159.53
2022-09-04T15:58:20.460Z,101158.84
2022-09-04T16:01:09.689Z,101161.77
2022-09-04T16:03:55.576Z,101162.02
2022-09-04T16:06:30.112Z,101167.99
2022-09-04T16:09:03.903Z,101172.84
2022-09-04T16:11:43.207Z,101171.46
2022-09-04T16:14:17.259Z,101174.38
2022-09-04T16:16:49.721Z,101178.84
2022-09-04T16:19:25.814Z,101179.90
2022-09-04T16:22:24.364Z,101177.20
2022-09-04T16:24:55.302Z,101176.51
2022-09-04T16:27:24.549Z,101177.86
2022-09-04T16:29:58.303Z,101179.63
2022-09-04T16:32:27.635Z,101177.02
2022-09-04T16:35:19.943Z,101179.14
2022-09-04T16:38:02.143Z,101180.52
2022-09-04T16:40:36.359Z,101180.38
2022-09-04T16:43:34.237Z,101187.35
2022-09-04T16:46:08.073Z,101190.23
2022-09-04T16:48:42.552Z,101191.99
2022-09-04T16:51:39.118Z,101192.41
2022-09-04T16:54:16.727Z,101191.44
2022-09-04T16:56:49.919Z,101199.65
2022-09-04T16:59:39.592Z,101199.99
2022-09-04T17:02:16.063Z,101203.59
2022-09-04T17:04:45.871Z,101205.31
2022-09-04T17:07:25.438Z,101208.31
2022-09-04T17:10:03.386Z,101210.05
2022-09-04T17:12:52.742Z,101214.84
2022-09-04T17:15:53.745Z,101221.20
2022-09-04T17:18:23.290Z,101219.40
2022-09-04T17:25:40.607Z,101219.05
2022-09-04T17:28:58.118Z,101221.69
2022-09-04T17:29:09.932Z,101217.66
2022-09-04T17:30:42.581Z,101227.73
2022-09-04T17:40:35.593Z,101233.39
2022-09-04T17:40:39.971Z,101243.15
2022-09-04T17:40:51.887Z,101239.98
2022-09-04T17:42:20.346Z,101246.30
2022-09-04T17:45:17.060Z,101252.12
2022-09-04T17:47:45.144Z,101256.27
2022-09-04T17:50:20.291Z,101259.98
2022-09-04T17:53:19.914Z,101267.26
2022-09-04T17:56:06.752Z,101268.98
2022-09-04T17:58:41.300Z,101270.40
2022-09-04T18:01:14.108Z,101267.63
2022-09-04T18:04:19.763Z,101276.70
2022-09-04T18:06:52.199Z,101281.73
2022-09-04T18:09:26.644Z,101280.70
2022-09-04T18:12:11.409Z,101283.08
2022-09-04T18:15:32.369Z,101286.92
2022-09-04T18:17:52.360Z,101290.13
2022-09-04T18:20:38.017Z,101288.26
2022-09-04T18:23:26.812Z,101293.16
2022-09-04T18:26:00.929Z,101291.41
2022-09-04T18:29:26.402Z,101294.85
2022-09-04T18:37:12.508Z,101303.60
2022-09-04T18:37:17.608Z,101303.95
2022-09-04T18:38:22.505Z,101303.69
2022-09-04T18:43:37.348Z,101303.73
2022-09-04T18:50:24.013Z,101300.86
2022-09-04T18:50:39.228Z,101296.91
2022-09-04T18:50:46.230Z,101301.98
2022-09-04T18:52:51.769Z,101309.23
2022-09-04T18:55:49.140Z,101309.16
2022-09-04T18:58:45.179Z,101308.60
2022-09-04T19:01:27.157Z,101310.90
2022-09-04T19:04:29.567Z,101311.41
2022-09-04T19:07:10.245Z,101313.86
2022-09-04T19:10:03.824Z,101312.88
2022-09-04T19:12:47.156Z,101315.06
2022-09-04T19:15:36.617Z,101316.47
2022-09-04T19:18:32.787Z,101321.06
2022-09-04T19:21:08.797Z,101313.21
2022-09-04T19:23:55.268Z,101316.77
2022-09-04T19:26:48.368Z,101316.52
2022-09-04T19:29:19.797Z,101316.84
2022-09-04T19:31:57.657Z,101316.17
2022-09-04T19:34:35.623Z,101317.44
2022-09-04T19:37:41.638Z,101316.26
2022-09-04T19:45:54.335Z,101311.96
2022-09-04T19:46:11.849Z,101310.84
2022-09-04T19:46:15.506Z,101313.78
2022-09-04T19:50:50.606Z,101310.34
2022-09-04T19:53:34.065Z,101315.66
2022-09-04T19:55:23.907Z,101317.41
2022-09-04T19:58:08.406Z,101318.77
2022-09-04T20:00:43.552Z,101320.62
2022-09-04T20:03:33.097Z,101318.91
2022-09-04T20:06:20.521Z,101321.96
2022-09-04T20:08:56.932Z,101321.32
2022-09-04T20:11:34.704Z,101323.86
2022-09-04T20:14:13.860Z,101323.17
2022-09-04T20:16:48.821Z,101323.73
2022-09-04T20:19:27.574Z,101323.04
2022-09-04T20:22:10.583Z,101327.82
2022-09-04T20:24:58.519Z,101326.55
2022-09-04T20:27:37.355Z,101325.48
2022-09-04T20:30:12.503Z,101329.26
2022-09-04T20:32:54.113Z,101327.40
2022-09-04T20:35:34.978Z,101324.88
2022-09-04T20:38:41.364Z,101328.36
2022-09-04T20:41:27.364Z,101331.84
2022-09-04T20:44:09.006Z,101332.98
2022-09-04T20:52:44.664Z,101329.21
2022-09-04T20:52:50.229Z,101329.45
2022-09-04T20:53:00.394Z,101325.45
2022-09-04T20:55:39.005Z,101323.97
2022-09-04T21:02:09.360Z,101322.96
2022-09-04T21:03:22.273Z,101329.95
2022-09-04T21:04:13.046Z,101331.48
2022-09-04T21:06:52.301Z,101330.36
2022-09-04T21:09:55.218Z,101328.02
2022-09-04T21:12:31.139Z,101329.98
2022-09-04T21:15:15.805Z,101333.04
2022-09-04T21:18:14.331Z,101333.44
2022-09-04T21:21:09.717Z,101333.46
2022-09-04T21:24:02.833Z,101334.02
2022-09-04T21:26:42.972Z,101332.69
2022-09-04T21:29:30.169Z,101331.66
2022-09-04T21:32:35.011Z,101335.06
2022-09-04T21:35:31.762Z,101326.29
2022-09-04T21:38:09.334Z,101325.48
2022-09-04T21:40:51.344Z,101325.98
2022-09-04T21:43:36.119Z,101329.81
2022-09-04T21:46:12.892Z,101326.74
2022-09-04T21:48:59.767Z,101328.27
2022-09-04T21:51:41.579Z,101335.55
2022-09-04T21:58:35.383Z,101336.64
2022-09-04T22:02:36.344Z,101339.23
2022-09-04T22:02:36.516Z,101338.38
2022-09-04T22:05:17.492Z,101343.61
2022-09-04T22:12:50.262Z,101346.86
2022-09-04T22:13:44.178Z,101352.96
2022-09-04T22:14:31.710Z,101349.72
2022-09-04T22:17:05.957Z,101350.86
2022-09-04T22:19:48.758Z,101352.84
2022-09-04T22:22:35.058Z,101355.48
2022-09-04T22:25:30.081Z,101354.92
2022-09-04T22:28:08.931Z,101359.31
2022-09-04T22:30:40.295Z,101356.63
2022-09-04T22:33:13.663Z,101356.61
2022-09-04T22:36:13.594Z,101356.77
2022-09-04T22:39:08.387Z,101356.05
2022-09-04T22:41:35.752Z,101354.80
2022-09-04T22:44:12.249Z,101354.05
2022-09-04T22:47:24.576Z,101357.23
2022-09-04T22:50:06.756Z,101358.98
2022-09-04T22:52:45.889Z,101359.85
2022-09-04T22:55:40.409Z,101362.33
2022-09-04T22:58:47.217Z,101362.52
2022-09-04T23:01:46.214Z,101361.29
2022-09-04T23:04:31.768Z,101366.61
2022-09-04T23:13:09.468Z,101366.32
2022-09-04T23:13:50.838Z,101364.72
2022-09-04T23:13:57.712Z,101368.92
2022-09-04T23:16:08.074Z,101366.56
2022-09-04T23:20:40.009Z,101365.64
2022-09-04T23:26:41.494Z,101371.05
2022-09-04T23:26:45.850Z,101367.88
2022-09-04T23:28:15.471Z,101371.91
2022-09-04T23:31:29.429Z,101369.05
2022-09-04T23:34:09.711Z,101370.30
2022-09-04T23:36:58.466Z,101370.16
2022-09-04T23:39:57.984Z,101374.02
2022-09-04T23:42:37.230Z,101369.58
2022-09-04T23:45:28.653Z,101366.55
2022-09-04T23:48:31.143Z,101367.20
2022-09-04T23:51:32.910Z,101369.79
2022-09-04T23:54:25.055Z,101367.42
2022-09-04T23:57:26.728Z,101368.80
